Etusivu
METAR-TAF:

METAR-TAF

Lentoasemat :

Florø, Norja

Leveyspiiri: 61-35N, Pituuspiiri: 005-02E, korkeus merenpinnasta: 0 m

Tämänhetkinen sää

Tämä raportti tehtiin 21 minuuttia sitten, kello 01.50 UTC
Tuuli 3 kn pohjoisesta
Lämpötila 3°C
Kosteus 60%
Ilmanpaine 1022 hPa
Näkyvyys 10 km tai enemmän

METAR: ENFL 260150Z AUTO 01003KT 9999NDV // BKN041/// OVC049/// 03/M04 Q1022

Aika: 03:11 (02:11 UTC)

Sääennuste

Tämä raportti tehtiin 9 tuntia ja 11 minuuttia sitten, kello 17.00 UTC
Ennuste voimassa 25. päivästä klo 18 UTC - 25. päivään klo 21 UTC
Tuuli 12 kn lännestä/luoteesta
Näkyvyys 10 km tai enemmän
Muutamia pilviä 2000 ft:n korkeudessa
Hajonneita pilviä 3000 ft:n korkeudessa
Todennäköisyys 30% :
Ajoittain
25. päivästä klo 18 UTC - 25. päivään klo 20 UTC
Hajonneita pilviä 1400 ft:n korkeudessa, Kasvava cumulus-pilvi.
heikkoja vesikuuroja

TAF: ENFL 251700Z 2518/2521 30012KT 9999 FEW020 BKN030 PROB30 TEMPO 2518/2520 -SHRA BKN014TCU

Säähavainnot ja -ennusteet yli 4000 lentoasemalta (METAR- ja TAF-raportit).

Käytössä olevat sääasemat on merkitty karttaan keltaisilla ja punaisilla pisteillä.

Aseta hiiri pisteen päälle nähdäksesi sääaseman nimen.

Klikkaa sitten nähdäksesi säähavainnot ja -ennusteet.

Kartan vaihtaminen: klikkaa mustalla rastilla varustettuja vihreitä pisteitä, niin voit zoomata sisään; viivalla varustettua vihreää pistettä, niin voit zoomata ulos tai vihreitä nuolia, niin pääset viereisille kartoille.


METAR-TAF: